createdAt,value
2022-09-28T00:03:29.692Z,11.00
2022-09-28T00:13:36.275Z,7.00
2022-09-28T00:23:58.280Z,7.90
2022-09-28T00:34:06.010Z,9.10
2022-09-28T00:44:37.957Z,11.00
2022-09-28T00:54:44.770Z,12.10
2022-09-28T01:04:53.399Z,11.90
2022-09-28T01:15:02.178Z,13.10
2022-09-28T01:25:12.513Z,15.80
2022-09-28T01:35:21.251Z,13.90
2022-09-28T01:45:29.521Z,12.40
2022-09-28T01:55:40.311Z,10.60
2022-09-28T02:05:52.622Z,13.30
2022-09-28T02:15:57.771Z,8.00
2022-09-28T02:26:08.376Z,6.30
2022-09-28T02:36:15.949Z,9.10
2022-09-28T02:46:23.079Z,9.60
2022-09-28T02:56:37.949Z,7.60
2022-09-28T03:06:54.862Z,8.70
2022-09-28T03:17:01.822Z,11.00
2022-09-28T03:27:10.106Z,10.10
2022-09-28T03:37:17.717Z,10.90
2022-09-28T03:47:24.888Z,13.20
2022-09-28T03:57:32.731Z,10.80
2022-09-28T04:07:39.034Z,10.00
2022-09-28T04:17:46.412Z,10.40
2022-09-28T04:28:11.218Z,15.40
2022-09-28T04:38:35.623Z,12.30
2022-09-28T04:48:45.870Z,12.40
2022-09-28T04:58:53.115Z,12.30
2022-09-28T05:08:59.415Z,10.90
2022-09-28T05:19:07.483Z,13.20
2022-09-28T05:29:14.813Z,15.70
2022-09-28T05:39:21.728Z,17.10
2022-09-28T05:49:28.344Z,17.80
2022-09-28T05:59:36.616Z,10.50
2022-09-28T06:09:43.729Z,13.40
2022-09-28T06:19:52.546Z,10.20
2022-09-28T06:30:01.102Z,10.10
2022-09-28T06:40:09.962Z,9.90
2022-09-28T06:50:17.460Z,8.30
2022-09-28T07:00:24.509Z,8.50
2022-09-28T07:10:33.392Z,12.70
2022-09-28T07:20:51.156Z,8.50
2022-09-28T07:31:00.346Z,5.70
2022-09-28T07:41:14.745Z,7.20
2022-09-28T07:51:22.370Z,10.50
2022-09-28T08:01:30.797Z,6.90
2022-09-28T08:11:39.422Z,4.80
2022-09-28T08:21:46.782Z,8.20
2022-09-28T08:31:56.352Z,5.60
2022-09-28T08:42:08.943Z,4.60
2022-09-28T08:52:18.947Z,7.00
2022-09-28T09:02:33.928Z,4.10
2022-09-28T09:12:45.857Z,3.50
2022-09-28T09:22:54.188Z,4.20
2022-09-28T09:33:09.126Z,3.10
2022-09-28T09:43:32.955Z,1.80
2022-09-28T09:53:41.816Z,2.90
2022-09-28T10:03:51.823Z,2.50
2022-09-28T10:13:59.532Z,4.30
2022-09-28T10:24:08.875Z,1.60
2022-09-28T10:34:18.973Z,7.20
2022-09-28T10:44:27.428Z,2.20
2022-09-28T10:54:35.410Z,2.80
2022-09-28T11:04:45.008Z,2.30
2022-09-28T11:14:57.143Z,2.20
2022-09-28T11:25:25.515Z,2.50
2022-09-28T11:35:38.761Z,1.70
2022-09-28T11:45:48.752Z,2.10
2022-09-28T11:55:59.534Z,3.00
2022-09-28T12:06:07.139Z,1.00
2022-09-28T12:26:53.283Z,2.10
2022-09-28T12:37:07.781Z,1.30
2022-09-28T12:47:33.558Z,2.50
2022-09-28T12:57:41.511Z,2.10
2022-09-28T13:07:50.020Z,1.90
2022-09-28T13:17:57.254Z,9.30
2022-09-28T13:28:02.789Z,4.80
2022-09-28T13:38:44.860Z,5.10
2022-09-28T13:49:00.793Z,6.40
2022-09-28T13:59:10.460Z,6.50
2022-09-28T14:09:45.803Z,10.00
2022-09-28T14:19:51.029Z,6.00
2022-09-28T14:30:08.888Z,6.20
2022-09-28T14:40:35.816Z,9.50
2022-09-28T14:50:43.314Z,6.30
2022-09-28T15:00:51.008Z,13.10
2022-09-28T15:11:02.192Z,2.50
2022-09-28T15:21:10.082Z,5.70
2022-09-28T15:31:17.824Z,4.90
2022-09-28T15:41:26.012Z,6.40
2022-09-28T15:51:46.256Z,6.90
2022-09-28T16:02:06.357Z,9.50
2022-09-28T16:12:15.544Z,7.10
2022-09-28T16:22:28.701Z,7.30
2022-09-28T16:32:38.601Z,8.30
2022-09-28T16:42:49.094Z,18.90
2022-09-28T16:53:15.920Z,25.70
2022-09-28T17:03:23.799Z,14.20
2022-09-28T17:13:33.828Z,12.80
2022-09-28T17:23:41.530Z,8.20
2022-09-28T17:33:48.998Z,6.40
2022-09-28T17:43:56.360Z,11.80
2022-09-28T17:54:04.854Z,14.10
2022-09-28T18:04:27.915Z,15.40
2022-09-28T18:14:40.243Z,27.60
2022-09-28T18:24:47.405Z,30.10
2022-09-28T18:34:54.497Z,32.70
2022-09-28T18:45:01.932Z,36.50
2022-09-28T18:55:08.064Z,42.50
2022-09-28T19:05:15.399Z,32.40
2022-09-28T19:15:20.010Z,36.10
2022-09-28T19:25:27.046Z,35.20
2022-09-28T19:35:34.605Z,79.90
2022-09-28T19:45:42.895Z,80.40
2022-09-28T19:55:52.874Z,87.60
2022-09-28T20:06:03.450Z,82.00
2022-09-28T20:16:08.435Z,84.30
2022-09-28T20:26:16.816Z,68.60
2022-09-28T20:36:25.195Z,50.90
2022-09-28T20:46:33.263Z,47.40
2022-09-28T20:56:40.689Z,36.60
2022-09-28T21:06:47.932Z,25.60
2022-09-28T21:16:55.680Z,27.80
2022-09-28T21:27:02.621Z,31.50
2022-09-28T21:37:10.352Z,134.10
2022-09-28T21:47:17.343Z,42.90
2022-09-28T21:57:24.590Z,43.30
2022-09-28T22:07:31.665Z,37.90
2022-09-28T22:17:38.332Z,32.40
2022-09-28T22:27:46.288Z,31.10
2022-09-28T22:37:53.272Z,27.70
2022-09-28T22:48:00.199Z,23.30
2022-09-28T22:58:07.420Z,17.60
2022-09-28T23:08:14.379Z,16.60
2022-09-28T23:18:21.331Z,14.80
2022-09-28T23:28:28.854Z,24.10
2022-09-28T23:38:35.949Z,15.20
2022-09-28T23:48:42.186Z,11.30
2022-09-28T23:58:49.270Z,8.60
